createdAt,value
2022-10-21T00:01:43.224Z,1.00
2022-10-21T00:04:11.338Z,1.00
2022-10-21T00:06:43.246Z,1.00
2022-10-21T00:09:12.612Z,1.00
2022-10-21T00:11:43.259Z,1.00
2022-10-21T00:14:11.461Z,1.00
2022-10-21T00:16:40.819Z,1.00
2022-10-21T00:19:09.031Z,1.00
2022-10-21T00:21:37.972Z,1.00
2022-10-21T00:24:07.693Z,1.00
2022-10-21T00:26:38.554Z,1.00
2022-10-21T00:29:06.928Z,1.00
2022-10-21T00:31:36.315Z,1.00
2022-10-21T00:34:05.633Z,1.00
2022-10-21T00:36:35.028Z,1.00
2022-10-21T00:39:04.789Z,1.00
2022-10-21T00:41:35.489Z,1.00
2022-10-21T00:44:07.961Z,1.00
2022-10-21T00:46:43.422Z,1.00
2022-10-21T00:49:20.337Z,1.00
2022-10-21T00:51:55.638Z,1.00
2022-10-21T00:54:26.143Z,1.00
2022-10-21T00:56:59.914Z,1.00
2022-10-21T00:59:34.779Z,1.00
2022-10-21T01:02:04.506Z,1.00
2022-10-21T01:04:34.117Z,1.00
2022-10-21T01:07:05.671Z,1.00
2022-10-21T01:09:35.048Z,1.00
2022-10-21T01:12:17.988Z,1.00
2022-10-21T01:14:57.266Z,1.00
2022-10-21T01:17:45.149Z,1.00
2022-10-21T01:20:57.341Z,1.00
2022-10-21T01:24:13.399Z,1.00
2022-10-21T01:27:18.175Z,1.00
2022-10-21T01:30:30.791Z,1.00
2022-10-21T01:33:18.914Z,1.00
2022-10-21T01:35:54.423Z,1.00
2022-10-21T01:38:36.084Z,1.00
2022-10-21T01:41:15.176Z,1.00
2022-10-21T01:43:54.073Z,1.00
2022-10-21T01:46:29.611Z,1.00
2022-10-21T01:49:04.748Z,1.00
2022-10-21T01:51:37.762Z,1.00
2022-10-21T01:54:13.254Z,1.00
2022-10-21T01:56:46.773Z,1.00
2022-10-21T01:59:17.379Z,1.00
2022-10-21T02:01:51.364Z,1.00
2022-10-21T02:04:20.294Z,1.00
2022-10-21T02:06:49.728Z,1.00
2022-10-21T02:09:18.019Z,1.00
2022-10-21T02:11:51.367Z,1.00
2022-10-21T02:14:26.594Z,1.00
2022-10-21T02:17:00.559Z,1.00
2022-10-21T02:22:07.962Z,1.00
2022-10-21T02:24:43.919Z,1.00
2022-10-21T02:27:13.768Z,1.00
2022-10-21T02:29:45.470Z,1.00
2022-10-21T02:32:30.892Z,1.00
2022-10-21T02:35:24.083Z,1.00
2022-10-21T02:38:00.941Z,1.00
2022-10-21T02:40:34.518Z,1.00
2022-10-21T02:43:10.206Z,1.00
2022-10-21T02:45:39.454Z,1.00
2022-10-21T02:48:11.382Z,1.00
2022-10-21T02:53:13.214Z,1.00
2022-10-21T02:55:41.224Z,1.00
2022-10-21T03:00:39.230Z,1.00
2022-10-21T03:03:10.046Z,1.00
2022-10-21T03:05:38.241Z,1.00
2022-10-21T03:08:08.250Z,1.00
2022-10-21T03:10:37.792Z,1.00
2022-10-21T03:13:07.207Z,1.00
2022-10-21T03:15:36.867Z,1.00
2022-10-21T03:18:06.289Z,1.00
2022-10-21T03:20:37.150Z,1.00
2022-10-21T03:23:05.350Z,1.00
2022-10-21T03:28:05.334Z,1.00
2022-10-21T03:30:34.725Z,1.00
2022-10-21T03:35:32.601Z,1.00
2022-10-21T03:38:04.592Z,1.00
2022-10-21T03:45:33.286Z,1.00
2022-10-21T03:48:02.667Z,1.00
2022-10-21T03:53:09.884Z,1.00
2022-10-21T03:55:43.577Z,1.00
2022-10-21T03:58:11.718Z,1.00
2022-10-21T04:00:41.083Z,1.00
2022-10-21T04:03:10.587Z,1.00
2022-10-21T04:08:07.290Z,1.00
2022-10-21T04:10:36.674Z,1.00
2022-10-21T04:13:07.401Z,1.00
2022-10-21T04:20:36.918Z,1.00
2022-10-21T04:23:05.103Z,1.00
2022-10-21T04:28:04.285Z,1.00
2022-10-21T04:30:34.975Z,1.00
2022-10-21T04:35:32.164Z,1.00
2022-10-21T04:40:30.413Z,1.00
2022-10-21T04:45:29.426Z,1.00
2022-10-21T04:47:59.033Z,1.00
2022-10-21T04:50:27.179Z,1.00
2022-10-21T04:52:55.440Z,1.00
2022-10-21T04:55:23.641Z,1.00
2022-10-21T04:57:53.003Z,1.00
2022-10-21T05:05:24.569Z,1.00
2022-10-21T05:07:54.071Z,1.00
2022-10-21T05:12:53.708Z,1.00
2022-10-21T05:15:22.770Z,1.00
2022-10-21T05:17:53.871Z,1.00
2022-10-21T05:20:24.536Z,1.00
2022-10-21T05:22:53.952Z,1.00
2022-10-21T05:25:23.623Z,1.00
2022-10-21T05:27:53.455Z,1.00
2022-10-21T05:30:21.640Z,1.00
2022-10-21T05:32:49.839Z,1.00
2022-10-21T05:35:18.287Z,1.00
2022-10-21T05:37:49.039Z,1.00
2022-10-21T05:40:18.895Z,1.00
2022-10-21T05:42:49.494Z,1.00
2022-10-21T05:45:17.835Z,1.00
2022-10-21T05:47:47.241Z,1.00
2022-10-21T05:50:16.841Z,1.00
2022-10-21T05:52:46.463Z,1.00
2022-10-21T05:55:17.294Z,1.00
2022-10-21T06:00:16.921Z,1.00
2022-10-21T06:02:46.308Z,1.00
2022-10-21T06:05:14.595Z,1.00
2022-10-21T06:07:43.997Z,1.00
2022-10-21T06:10:13.551Z,1.00
2022-10-21T06:12:43.374Z,1.00
2022-10-21T06:15:12.179Z,1.00
2022-10-21T06:17:41.714Z,1.00
2022-10-21T06:20:10.815Z,1.00
2022-10-21T06:22:40.360Z,1.00
2022-10-21T06:25:10.252Z,1.00
2022-10-21T06:30:12.318Z,1.00
2022-10-21T06:32:41.738Z,1.00
2022-10-21T06:35:10.218Z,1.00
2022-10-21T06:37:39.842Z,1.00
2022-10-21T06:40:10.780Z,1.00
2022-10-21T06:42:40.469Z,1.00
2022-10-21T06:45:12.094Z,1.00
2022-10-21T06:47:40.596Z,1.00
2022-10-21T06:50:09.710Z,1.00
2022-10-21T06:52:40.269Z,1.00
2022-10-21T06:55:09.339Z,1.00
2022-10-21T06:57:37.941Z,1.00
2022-10-21T07:00:08.003Z,1.00
2022-10-21T07:02:37.760Z,1.00
2022-10-21T07:05:07.155Z,1.00
2022-10-21T07:07:35.868Z,1.00
2022-10-21T07:10:04.652Z,1.00
2022-10-21T07:12:34.180Z,1.00
2022-10-21T07:17:32.085Z,1.00
2022-10-21T07:20:02.858Z,1.00
2022-10-21T07:22:33.066Z,8.30
2022-10-21T07:25:02.565Z,16.70
2022-10-21T07:27:30.793Z,21.60
2022-10-21T07:30:00.205Z,23.00
2022-10-21T07:32:29.769Z,27.30
2022-10-21T07:34:59.110Z,33.20
2022-10-21T07:37:31.111Z,34.50
2022-10-21T07:39:59.502Z,43.30
2022-10-21T07:42:30.723Z,45.50
2022-10-21T07:45:01.698Z,43.70
2022-10-21T07:47:31.112Z,65.90
2022-10-21T07:50:00.770Z,76.10
2022-10-21T07:52:31.677Z,89.30
2022-10-21T07:55:02.921Z,94.70
2022-10-21T08:00:02.028Z,99.90
2022-10-21T08:02:31.455Z,99.90
2022-10-21T08:05:01.153Z,99.90
2022-10-21T08:07:32.291Z,99.90
2022-10-21T08:10:00.719Z,99.90
2022-10-21T08:12:28.849Z,99.90
2022-10-21T08:14:58.327Z,95.20
2022-10-21T08:19:56.933Z,86.10
2022-10-21T08:22:26.299Z,81.40
2022-10-21T08:24:57.120Z,32.50
2022-10-21T08:27:25.272Z,27.80
2022-10-21T08:29:54.626Z,31.60
2022-10-21T08:32:24.104Z,21.30
2022-10-21T08:34:53.454Z,17.00
2022-10-21T08:37:25.528Z,12.20
2022-10-21T08:42:25.698Z,13.80
2022-10-21T08:45:00.663Z,3.60
2022-10-21T08:47:36.982Z,1.00
2022-10-21T08:50:12.147Z,1.00
2022-10-21T08:52:46.026Z,1.00
2022-10-21T08:55:20.616Z,1.00
2022-10-21T08:57:54.662Z,1.00
2022-10-21T09:00:26.319Z,1.00
2022-10-21T09:03:19.338Z,1.00
2022-10-21T09:06:24.606Z,1.00
2022-10-21T09:09:18.466Z,1.00
2022-10-21T09:12:08.987Z,1.00
2022-10-21T09:15:08.817Z,1.00
2022-10-21T09:18:08.471Z,1.00
2022-10-21T09:20:56.618Z,1.00
2022-10-21T09:23:54.398Z,1.00
2022-10-21T09:26:36.429Z,1.00
2022-10-21T09:29:28.007Z,1.00
2022-10-21T09:32:14.804Z,1.00
2022-10-21T09:34:51.377Z,1.00
2022-10-21T09:37:31.783Z,1.00
2022-10-21T09:40:16.091Z,1.00
2022-10-21T09:42:48.111Z,1.00
2022-10-21T09:45:26.963Z,1.00
2022-10-21T09:48:02.309Z,1.00
2022-10-21T09:50:35.097Z,1.00
2022-10-21T09:53:11.421Z,1.00
2022-10-21T09:55:41.320Z,1.00
2022-10-21T09:58:25.446Z,1.00
2022-10-21T10:00:55.888Z,1.00
2022-10-21T10:03:40.307Z,1.00
2022-10-21T10:08:42.293Z,1.00
2022-10-21T10:11:18.099Z,1.00
2022-10-21T10:13:49.993Z,1.00
2022-10-21T10:16:27.010Z,1.00
2022-10-21T10:19:19.026Z,1.00
2022-10-21T10:22:10.294Z,1.00
2022-10-21T10:24:41.845Z,1.00
2022-10-21T10:27:20.629Z,99.90
2022-10-21T10:29:55.030Z,99.90
2022-10-21T10:32:27.582Z,99.90
2022-10-21T10:35:04.329Z,99.90
2022-10-21T10:37:37.917Z,99.90
2022-10-21T10:40:10.636Z,99.90
2022-10-21T10:42:46.655Z,99.90
2022-10-21T10:45:21.600Z,99.90
2022-10-21T10:47:57.235Z,99.90
2022-10-21T10:50:49.029Z,99.90
2022-10-21T10:53:35.144Z,99.90
2022-10-21T10:56:24.654Z,99.90
2022-10-21T10:58:59.745Z,99.90
2022-10-21T11:01:36.424Z,99.90
2022-10-21T11:04:16.365Z,99.90
2022-10-21T11:06:54.637Z,99.90
2022-10-21T11:09:27.546Z,99.90
2022-10-21T11:11:56.444Z,99.90
2022-10-21T11:14:26.127Z,99.90
2022-10-21T11:17:10.231Z,99.90
2022-10-21T11:19:51.775Z,99.90
2022-10-21T11:22:36.149Z,99.90
2022-10-21T11:25:21.150Z,99.90
2022-10-21T11:28:06.368Z,99.90
2022-10-21T11:30:53.010Z,99.90
2022-10-21T11:33:31.998Z,99.90
2022-10-21T11:36:11.126Z,99.90
2022-10-21T11:39:21.467Z,99.90
2022-10-21T11:41:59.426Z,99.90
2022-10-21T11:44:44.195Z,99.90
2022-10-21T11:47:23.434Z,99.90
2022-10-21T11:50:05.955Z,99.90
2022-10-21T11:52:47.716Z,99.90
2022-10-21T11:55:39.915Z,99.90
2022-10-21T11:58:26.837Z,99.90
2022-10-21T12:01:24.104Z,99.90
2022-10-21T12:04:39.008Z,99.90
2022-10-21T12:07:32.505Z,99.90
2022-10-21T12:10:07.300Z,99.90
2022-10-21T12:12:46.182Z,99.90
2022-10-21T12:15:21.515Z,99.90
2022-10-21T12:17:50.808Z,99.90
2022-10-21T12:20:24.344Z,99.90
2022-10-21T12:23:02.172Z,99.90
2022-10-21T12:25:39.036Z,99.90
2022-10-21T12:28:19.240Z,99.90
2022-10-21T12:30:56.788Z,99.90
2022-10-21T12:33:40.215Z,99.90
2022-10-21T12:36:18.040Z,99.90
2022-10-21T12:38:50.910Z,99.90
2022-10-21T12:41:34.398Z,99.90
2022-10-21T12:44:18.192Z,99.90
2022-10-21T12:46:50.973Z,99.90
2022-10-21T12:49:26.955Z,99.90
2022-10-21T12:52:04.193Z,99.90
2022-10-21T12:54:44.235Z,99.90
2022-10-21T12:57:28.267Z,99.90
2022-10-21T13:00:45.256Z,99.90
2022-10-21T13:03:20.671Z,99.90
2022-10-21T13:06:07.267Z,99.90
2022-10-21T13:08:52.594Z,99.90
2022-10-21T13:11:40.296Z,99.90
2022-10-21T13:14:35.456Z,99.90
2022-10-21T13:17:49.911Z,99.90
2022-10-21T13:20:50.823Z,99.90
2022-10-21T13:23:48.067Z,99.90
2022-10-21T13:26:25.117Z,99.90
2022-10-21T13:29:05.373Z,99.90
2022-10-21T13:34:27.060Z,99.90
2022-10-21T13:36:55.740Z,1.00
2022-10-21T13:39:31.040Z,1.00
2022-10-21T13:42:05.372Z,1.00
2022-10-21T13:44:39.251Z,1.00
2022-10-21T13:47:27.963Z,1.00
2022-10-21T13:50:09.984Z,1.00
2022-10-21T13:55:17.979Z,99.90
2022-10-21T13:57:50.323Z,99.90
2022-10-21T14:00:23.056Z,99.90
2022-10-21T14:02:55.315Z,99.90
2022-10-21T14:05:33.720Z,99.90
2022-10-21T14:08:02.655Z,99.90
2022-10-21T14:10:33.936Z,99.90
2022-10-21T14:13:02.497Z,99.90
2022-10-21T14:15:41.391Z,99.90
2022-10-21T14:18:36.424Z,99.90
2022-10-21T14:21:14.939Z,99.90
2022-10-21T14:23:48.089Z,99.90
2022-10-21T14:28:48.215Z,19.40
2022-10-21T14:31:19.364Z,69.30
2022-10-21T14:33:49.785Z,1.00
2022-10-21T14:36:23.536Z,1.00
2022-10-21T14:39:01.705Z,1.00
2022-10-21T14:41:33.482Z,1.00
2022-10-21T14:44:11.039Z,1.00
2022-10-21T14:46:46.682Z,1.00
2022-10-21T14:49:24.604Z,1.00
2022-10-21T14:52:00.214Z,1.00
2022-10-21T14:54:39.087Z,1.00
2022-10-21T14:57:39.133Z,1.00
2022-10-21T15:00:20.521Z,1.00
2022-10-21T15:02:49.819Z,1.00
2022-10-21T15:05:37.951Z,7.90
2022-10-21T15:08:32.556Z,25.00
2022-10-21T15:11:24.429Z,44.00
2022-10-21T15:14:10.673Z,68.80
2022-10-21T15:16:48.313Z,78.60
2022-10-21T15:19:21.400Z,94.30
2022-10-21T15:21:54.020Z,61.40
2022-10-21T15:24:32.256Z,99.90
2022-10-21T15:27:02.302Z,97.70
2022-10-21T15:29:39.146Z,99.90
2022-10-21T15:32:07.740Z,99.90
2022-10-21T15:34:37.203Z,99.90
2022-10-21T15:39:38.167Z,99.90
2022-10-21T15:42:07.603Z,99.90
2022-10-21T15:44:36.221Z,99.90
2022-10-21T15:47:11.140Z,99.90
2022-10-21T15:49:43.443Z,99.90
2022-10-21T15:52:11.686Z,99.90
2022-10-21T15:54:43.928Z,99.90
2022-10-21T15:57:18.927Z,99.90
2022-10-21T15:59:49.113Z,99.90
2022-10-21T16:02:18.522Z,99.90
2022-10-21T16:04:47.148Z,99.90
2022-10-21T16:07:21.677Z,99.90
2022-10-21T16:09:52.652Z,99.90
2022-10-21T16:12:23.190Z,99.90
2022-10-21T16:14:52.587Z,99.90
2022-10-21T16:17:21.417Z,99.90
2022-10-21T16:19:49.669Z,99.90
2022-10-21T16:22:23.623Z,99.90
2022-10-21T16:24:53.233Z,99.90
2022-10-21T16:27:26.595Z,99.90
2022-10-21T16:32:29.421Z,99.90
2022-10-21T16:37:29.457Z,99.90
2022-10-21T16:40:01.416Z,99.90
2022-10-21T16:45:00.574Z,99.90
2022-10-21T16:50:02.314Z,99.90
2022-10-21T16:52:33.487Z,99.90
2022-10-21T16:55:04.322Z,99.90
2022-10-21T16:57:33.603Z,99.90
2022-10-21T17:00:03.252Z,99.90
2022-10-21T17:02:31.581Z,99.90
2022-10-21T17:05:00.967Z,99.90
2022-10-21T17:07:30.592Z,99.90
2022-10-21T17:09:59.974Z,99.90
2022-10-21T17:12:31.381Z,99.90
2022-10-21T17:15:01.714Z,99.90
2022-10-21T17:17:29.885Z,1.00
2022-10-21T17:19:59.426Z,1.00
2022-10-21T17:22:27.625Z,1.00
2022-10-21T17:27:29.261Z,1.00
2022-10-21T17:29:57.427Z,1.00
2022-10-21T17:32:26.774Z,1.00
2022-10-21T17:34:56.805Z,1.00
2022-10-21T17:37:26.196Z,1.00
2022-10-21T17:39:54.409Z,1.00
2022-10-21T17:42:23.813Z,1.00
2022-10-21T17:44:57.221Z,1.00
2022-10-21T17:47:26.748Z,1.00
2022-10-21T17:54:54.595Z,1.00
2022-10-21T17:57:23.319Z,1.00
2022-10-21T17:59:54.678Z,1.00
2022-10-21T18:02:25.840Z,1.00
2022-10-21T18:04:54.147Z,1.00
2022-10-21T18:07:22.411Z,1.00
2022-10-21T18:09:52.984Z,1.00
2022-10-21T18:12:21.570Z,1.00
2022-10-21T18:14:51.528Z,1.00
2022-10-21T18:17:21.777Z,1.00
2022-10-21T18:19:54.047Z,1.00
2022-10-21T18:24:53.860Z,1.00
2022-10-21T18:27:22.051Z,1.00
2022-10-21T18:29:52.562Z,1.00
2022-10-21T18:32:20.690Z,1.00
2022-10-21T18:34:48.852Z,1.00
2022-10-21T18:37:18.355Z,1.00
2022-10-21T18:39:47.793Z,1.00
2022-10-21T18:42:15.928Z,1.00
2022-10-21T18:44:45.512Z,1.00
2022-10-21T18:47:16.172Z,1.00
2022-10-21T18:49:45.521Z,1.00
2022-10-21T18:52:14.216Z,1.00
2022-10-21T18:54:43.898Z,1.00
2022-10-21T18:57:14.103Z,1.00
2022-10-21T18:59:42.488Z,1.00
2022-10-21T19:02:19.769Z,1.00
2022-10-21T19:04:48.131Z,1.00
2022-10-21T19:07:19.596Z,1.00
2022-10-21T19:09:49.283Z,1.00
2022-10-21T19:14:52.034Z,1.00
2022-10-21T19:17:23.329Z,1.00
2022-10-21T19:19:52.674Z,1.00
2022-10-21T19:22:23.489Z,1.00
2022-10-21T19:24:53.339Z,1.00
2022-10-21T19:27:22.690Z,1.00
2022-10-21T19:29:52.121Z,1.00
2022-10-21T19:32:20.437Z,1.00
2022-10-21T19:34:49.898Z,1.00
2022-10-21T19:37:20.505Z,1.00
2022-10-21T19:39:48.691Z,1.00
2022-10-21T19:42:20.766Z,1.00
2022-10-21T19:44:49.962Z,1.00
2022-10-21T19:47:22.701Z,1.00
2022-10-21T19:49:50.854Z,1.00
2022-10-21T19:52:20.268Z,1.00
2022-10-21T19:54:52.210Z,1.00
2022-10-21T19:57:22.942Z,1.00
2022-10-21T19:59:51.267Z,1.00
2022-10-21T20:02:21.855Z,1.00
2022-10-21T20:04:49.990Z,1.00
2022-10-21T20:07:19.349Z,1.00
2022-10-21T20:12:16.288Z,1.00
2022-10-21T20:14:47.033Z,1.00
2022-10-21T20:17:18.435Z,1.00
2022-10-21T20:19:48.616Z,1.00
2022-10-21T20:22:17.339Z,1.00
2022-10-21T20:24:46.395Z,1.00
2022-10-21T20:27:14.859Z,1.00
2022-10-21T20:29:44.403Z,1.00
2022-10-21T20:32:13.978Z,1.00
2022-10-21T20:34:44.055Z,1.00
2022-10-21T20:37:13.373Z,1.00
2022-10-21T20:39:42.856Z,1.00
2022-10-21T20:42:11.129Z,1.00
2022-10-21T20:44:40.546Z,1.00
2022-10-21T20:47:08.721Z,1.00
2022-10-21T20:49:39.671Z,1.00
2022-10-21T20:52:07.834Z,1.00
2022-10-21T20:54:36.120Z,1.00
2022-10-21T20:57:05.635Z,1.00
2022-10-21T20:59:33.788Z,1.00
2022-10-21T21:02:03.220Z,1.00
2022-10-21T21:07:04.791Z,1.00
2022-10-21T21:09:50.681Z,1.00
2022-10-21T21:12:21.076Z,1.00
2022-10-21T21:14:49.173Z,1.00
2022-10-21T21:17:18.512Z,1.00
2022-10-21T21:19:47.858Z,1.00
2022-10-21T21:22:22.181Z,1.00
2022-10-21T21:24:50.376Z,1.00
2022-10-21T21:27:19.819Z,1.00
2022-10-21T21:29:47.938Z,1.00
2022-10-21T21:32:20.134Z,1.00
2022-10-21T21:34:55.391Z,1.00
2022-10-21T21:37:28.089Z,1.00
2022-10-21T21:44:55.643Z,1.00
2022-10-21T21:47:23.812Z,1.00
2022-10-21T21:49:51.908Z,1.00
2022-10-21T21:52:20.060Z,1.00
2022-10-21T21:54:54.363Z,1.00
2022-10-21T21:57:27.735Z,1.00
2022-10-21T21:59:56.411Z,1.00
2022-10-21T22:02:25.749Z,1.00
2022-10-21T22:07:26.021Z,1.00
2022-10-21T22:09:56.686Z,1.00
2022-10-21T22:12:26.001Z,1.00
2022-10-21T22:14:54.106Z,1.00
2022-10-21T22:17:24.035Z,1.00
2022-10-21T22:19:54.064Z,1.00
2022-10-21T22:22:23.537Z,1.00
2022-10-21T22:24:51.738Z,1.00
2022-10-21T22:27:22.454Z,1.00
2022-10-21T22:29:50.572Z,1.00
2022-10-21T22:32:20.040Z,1.00
2022-10-21T22:34:49.627Z,1.00
2022-10-21T22:37:19.042Z,1.00
2022-10-21T22:39:48.427Z,1.00
2022-10-21T22:42:18.962Z,1.00
2022-10-21T22:44:49.684Z,1.00
2022-10-21T22:47:17.945Z,1.00
2022-10-21T22:49:47.314Z,1.00
2022-10-21T22:52:16.967Z,1.00
2022-10-21T22:54:50.046Z,1.00
2022-10-21T22:57:19.692Z,1.00
2022-10-21T22:59:53.040Z,1.00
2022-10-21T23:02:22.963Z,1.00
2022-10-21T23:04:52.359Z,1.00
2022-10-21T23:07:21.799Z,1.00
2022-10-21T23:09:51.337Z,1.00
2022-10-21T23:12:19.486Z,1.00
2022-10-21T23:14:48.981Z,1.00
2022-10-21T23:17:18.390Z,1.00
2022-10-21T23:22:15.473Z,1.00
2022-10-21T23:24:44.868Z,1.00
2022-10-21T23:27:14.569Z,1.00
2022-10-21T23:29:42.725Z,1.00
2022-10-21T23:32:14.671Z,1.00
2022-10-21T23:34:42.778Z,1.00
2022-10-21T23:37:11.067Z,1.00
2022-10-21T23:39:39.822Z,1.00
2022-10-21T23:42:07.976Z,1.00
2022-10-21T23:44:37.336Z,1.00
2022-10-21T23:47:07.120Z,1.00
2022-10-21T23:49:37.852Z,1.00
2022-10-21T23:52:08.483Z,1.00
2022-10-21T23:54:37.974Z,1.00
2022-10-21T23:59:36.503Z,1.00
